Time;durP1;ratioP1;P1;durP2;ratioP2;P2;SDS_P1;SDS_P2;PMS_P1;PMS_P2;Temp;Humidity;BMP_temperature;BMP_pressure;BME280_temperature;BME280_humidity;BME280_pressure;Samples;Min_cycle;Max_cycle;Signal;HPM_P1;HPM_P2
2022/10/18 00:00:51;;;;;;;20.65;11.23;;;13.90;99.90;;;;;;5115842;28;20028;-71
2022/10/18 00:03:17;;;;;;;21.65;10.95;;;13.90;99.90;;;;;;5104426;28;20032;-72
2022/10/18 00:05:42;;;;;;;18.77;11.35;;;13.90;99.90;;;;;;5112662;28;20031;-71
2022/10/18 00:08:08;;;;;;;20.05;11.50;;;13.80;99.90;;;;;;5115820;28;20048;-72
2022/10/18 00:10:34;;;;;;;18.88;11.00;;;13.80;99.90;;;;;;5097370;28;20102;-72
2022/10/18 00:12:59;;;;;;;14.68;9.65;;;13.70;99.90;;;;;;5116362;28;20081;-71
2022/10/18 00:15:25;;;;;;;20.92;10.10;;;13.70;99.90;;;;;;5115935;28;20024;-71
2022/10/18 00:17:50;;;;;;;19.08;10.73;;;13.70;99.90;;;;;;5114213;28;20020;-71
2022/10/18 00:20:16;;;;;;;24.40;10.57;;;13.60;99.90;;;;;;5112133;28;20019;-71
2022/10/18 00:22:41;;;;;;;18.95;10.43;;;13.60;99.90;;;;;;5094385;28;20020;-72
2022/10/18 00:25:08;;;;;;;19.77;10.45;;;13.60;99.90;;;;;;5113348;28;20051;-72
2022/10/18 00:27:34;;;;;;;16.98;10.10;;;13.50;99.90;;;;;;5112400;28;20560;-72
2022/10/18 00:29:59;;;;;;;17.92;10.20;;;13.50;99.90;;;;;;5111913;28;20016;-72
2022/10/18 00:32:25;;;;;;;18.75;9.75;;;13.50;99.90;;;;;;5111008;28;20050;-71
2022/10/18 00:34:51;;;;;;;17.85;9.52;;;13.40;99.90;;;;;;5110748;28;20494;-71
2022/10/18 00:37:17;;;;;;;18.60;9.65;;;13.40;99.90;;;;;;5103022;28;20028;-72
2022/10/18 00:39:43;;;;;;;17.08;9.48;;;13.40;99.90;;;;;;5107104;28;20517;-72
2022/10/18 00:42:20;;;;;;;17.58;9.50;;;13.30;99.90;;;;;;5112181;28;20384;-71
2022/10/18 00:44:45;;;;;;;21.20;9.80;;;13.30;99.90;;;;;;5097971;28;20024;-71
2022/10/18 00:47:15;;;;;;;20.70;9.90;;;13.30;99.90;;;;;;5093973;28;20011;-71
2022/10/18 00:49:50;;;;;;;21.77;9.93;;;13.20;99.90;;;;;;5103287;28;20048;-72
2022/10/18 00:52:27;;;;;;;16.77;9.50;;;13.20;99.90;;;;;;5100162;28;20494;-71
2022/10/18 00:54:54;;;;;;;14.23;8.73;;;13.20;99.90;;;;;;5109248;28;20470;-72
2022/10/18 00:57:20;;;;;;;18.27;9.35;;;13.20;99.90;;;;;;5112125;28;20034;-72
2022/10/18 00:59:46;;;;;;;20.58;8.57;;;13.20;99.90;;;;;;5112181;28;20024;-71
2022/10/18 01:02:14;;;;;;;18.83;9.30;;;13.20;99.90;;;;;;5111912;28;20118;-72
2022/10/18 01:04:40;;;;;;;13.30;9.23;;;13.10;99.90;;;;;;5111826;28;20051;-72
2022/10/18 01:07:19;;;;;;;23.27;9.15;;;13.10;99.90;;;;;;5100147;28;20058;-72
2022/10/18 01:09:58;;;;;;;20.23;9.07;;;13.10;99.90;;;;;;5099733;28;20085;-74
2022/10/18 01:12:59;;;;;;;15.63;9.02;;;13.10;99.90;;;;;;5111406;28;20398;-72
2022/10/18 01:15:29;;;;;;;19.00;8.82;;;13.10;99.90;;;;;;5060858;28;20036;-72
2022/10/18 01:18:06;;;;;;;16.67;8.63;;;13.10;99.90;;;;;;5111838;28;20034;-72
2022/10/18 01:20:57;;;;;;;17.10;8.32;;;13.10;99.90;;;;;;5111781;28;20023;-72
2022/10/18 01:23:29;;;;;;;16.88;8.55;;;13.10;99.90;;;;;;5078596;28;20071;-71
2022/10/18 01:26:17;;;;;;;15.63;8.55;;;13.10;99.90;;;;;;5111162;28;20035;-71
2022/10/18 01:29:07;;;;;;;13.10;7.85;;;13.00;99.90;;;;;;5109001;28;20364;-71
2022/10/18 01:31:40;;;;;;;13.90;7.63;;;13.00;99.90;;;;;;5102659;28;20372;-72
2022/10/18 01:34:08;;;;;;;15.63;7.50;;;12.90;99.90;;;;;;5111877;28;20032;-73
2022/10/18 01:36:39;;;;;;;13.07;7.40;;;12.90;99.90;;;;;;5111976;28;20028;-72
2022/10/18 01:39:09;;;;;;;14.80;7.90;;;12.80;99.90;;;;;;5098951;28;20050;-72
2022/10/18 01:41:38;;;;;;;14.30;7.70;;;12.80;99.90;;;;;;5111818;28;20024;-71
2022/10/18 01:44:08;;;;;;;12.02;6.78;;;12.80;99.90;;;;;;5107742;28;20069;-72
2022/10/18 01:46:35;;;;;;;12.98;7.07;;;12.80;99.90;;;;;;5111623;28;20145;-72
2022/10/18 01:49:00;;;;;;;13.50;7.88;;;12.70;99.90;;;;;;5109200;28;20513;-72
2022/10/18 01:51:31;;;;;;;15.60;7.35;;;12.70;99.90;;;;;;5102512;28;20060;-72
2022/10/18 01:53:57;;;;;;;10.93;6.78;;;12.70;99.90;;;;;;5106113;28;20039;-71
2022/10/18 01:56:35;;;;;;;14.82;7.03;;;12.60;99.90;;;;;;5110612;28;20292;-72
2022/10/18 01:59:38;;;;;;;14.98;7.30;;;12.60;99.90;;;;;;5104804;28;20380;-72
2022/10/18 02:02:21;;;;;;;14.82;6.55;;;12.60;99.90;;;;;;5109097;28;20529;-72
2022/10/18 02:05:13;;;;;;;11.35;6.57;;;12.60;99.90;;;;;;5099416;28;20038;-72
2022/10/18 02:07:59;;;;;;;11.25;6.75;;;12.60;99.90;;;;;;5088644;28;20038;-72
2022/10/18 02:10:28;;;;;;;;;;;12.50;99.90;;;;;;5103343;28;20023;-71
2022/10/18 02:12:55;;;;;;;13.88;6.50;;;12.50;99.90;;;;;;5109212;28;20395;-72
2022/10/18 02:15:26;;;;;;;14.10;6.90;;;12.40;99.90;;;;;;5110207;28;20055;-72
2022/10/18 02:17:54;;;;;;;15.98;7.22;;;12.40;99.90;;;;;;5102628;28;20103;-72
2022/10/18 02:20:23;;;;;;;11.00;6.50;;;12.40;99.90;;;;;;5097329;28;20069;-72
2022/10/18 02:22:51;;;;;;;10.15;6.47;;;12.30;99.90;;;;;;5101915;28;20117;-72
2022/10/18 02:25:21;;;;;;;10.93;6.15;;;12.30;99.90;;;;;;5109072;28;20098;-72
2022/10/18 02:27:47;;;;;;;13.70;6.15;;;12.30;99.90;;;;;;5087876;28;20028;-71
2022/10/18 02:30:14;;;;;;;13.88;6.53;;;12.30;99.90;;;;;;5093334;28;20032;-71
2022/10/18 02:32:57;;;;;;;9.93;6.15;;;12.20;99.90;;;;;;5104813;28;20074;-72
2022/10/18 02:35:28;;;;;;;7.97;5.93;;;12.20;99.90;;;;;;5103122;28;20046;-72
2022/10/18 02:37:56;;;;;;;12.65;5.60;;;12.20;99.90;;;;;;5106945;28;20114;-72
2022/10/18 02:40:23;;;;;;;13.85;6.22;;;12.20;99.90;;;;;;5110113;28;20015;-71
2022/10/18 02:42:53;;;;;;;11.93;6.13;;;12.20;99.90;;;;;;5098479;28;20027;-72
2022/10/18 02:45:18;;;;;;;12.02;6.00;;;12.10;99.90;;;;;;5101845;28;20113;-72
2022/10/18 02:47:44;;;;;;;9.55;5.47;;;12.10;99.90;;;;;;5104834;28;20032;-71
2022/10/18 02:50:10;;;;;;;8.80;5.97;;;12.10;99.90;;;;;;5110153;28;20036;-72
2022/10/18 02:52:36;;;;;;;10.48;5.70;;;12.00;99.90;;;;;;5110218;28;20125;-72
2022/10/18 02:55:01;;;;;;;12.23;5.57;;;12.00;99.90;;;;;;5109245;28;20019;-72
2022/10/18 02:57:27;;;;;;;12.55;6.10;;;12.00;99.90;;;;;;5098480;28;20035;-71
2022/10/18 02:59:53;;;;;;;9.27;6.03;;;12.00;99.90;;;;;;5095252;28;20056;-72
2022/10/18 03:02:18;;;;;;;10.07;5.90;;;11.90;99.90;;;;;;5105615;28;20080;-71
2022/10/18 03:04:44;;;;;;;8.80;4.82;;;11.90;99.90;;;;;;5109693;28;20039;-72
2022/10/18 03:07:09;;;;;;;11.10;5.85;;;11.90;99.90;;;;;;5095657;28;20543;-72
2022/10/18 03:09:35;;;;;;;8.77;5.47;;;11.90;99.90;;;;;;5106948;28;20028;-72
2022/10/18 03:12:00;;;;;;;9.93;5.20;;;11.80;99.90;;;;;;5110316;28;20115;-71
2022/10/18 03:14:26;;;;;;;11.18;5.40;;;11.80;99.90;;;;;;5112336;28;20502;-72
2022/10/18 03:16:51;;;;;;;11.63;5.20;;;11.80;99.90;;;;;;5107955;28;20024;-72
2022/10/18 03:19:17;;;;;;;13.05;5.20;;;11.80;99.90;;;;;;5109783;28;20015;-72
2022/10/18 03:21:43;;;;;;;10.63;5.38;;;11.70;99.90;;;;;;5077792;28;20073;-72
2022/10/18 03:24:08;;;;;;;16.27;5.28;;;11.70;99.90;;;;;;5108818;28;20062;-72
2022/10/18 03:26:34;;;;;;;12.98;5.10;;;11.70;99.90;;;;;;5110027;28;20020;-72
2022/10/18 03:28:59;;;;;;;9.93;5.40;;;11.70;99.90;;;;;;5094227;28;20038;-72
2022/10/18 03:31:25;;;;;;;16.48;5.78;;;11.70;99.90;;;;;;5088576;28;20024;-72
2022/10/18 03:33:51;;;;;;;13.13;5.60;;;11.70;99.90;;;;;;5104973;28;20069;-71
2022/10/18 03:36:16;;;;;;;12.88;5.22;;;11.70;99.90;;;;;;5102142;28;20097;-72
2022/10/18 03:38:42;;;;;;;11.68;5.30;;;11.70;99.90;;;;;;5103636;28;20020;-72
2022/10/18 03:41:07;;;;;;;15.32;5.15;;;11.70;99.90;;;;;;5109375;28;20028;-71
2022/10/18 03:43:33;;;;;;;14.38;6.05;;;11.70;99.90;;;;;;5110253;28;20031;-71
2022/10/18 03:45:59;;;;;;;15.98;6.50;;;11.70;99.90;;;;;;5109455;28;20137;-72
2022/10/18 03:48:25;;;;;;;16.08;6.53;;;11.70;99.90;;;;;;5109187;28;20104;-72
2022/10/18 03:50:51;;;;;;;21.52;6.72;;;11.70;99.90;;;;;;5095089;28;20123;-71
2022/10/18 03:53:16;;;;;;;16.95;6.68;;;11.70;99.90;;;;;;5111185;28;20055;-72
2022/10/18 03:55:42;;;;;;;18.98;7.03;;;11.70;99.90;;;;;;5112923;28;20511;-71
2022/10/18 03:58:08;;;;;;;14.90;6.43;;;11.70;99.90;;;;;;5109635;28;20019;-72
2022/10/18 04:00:34;;;;;;;13.75;5.75;;;11.60;99.90;;;;;;5104357;28;20065;-71
2022/10/18 04:02:59;;;;;;;10.55;4.93;;;11.60;99.90;;;;;;5105648;28;20059;-72
2022/10/18 04:05:29;;;;;;;12.70;4.65;;;11.60;99.90;;;;;;5095604;28;20115;-72
2022/10/18 04:07:55;;;;;;;14.10;4.82;;;11.60;99.90;;;;;;5108642;28;20350;-72
2022/10/18 04:10:21;;;;;;;9.55;4.53;;;11.60;99.90;;;;;;5113027;28;20055;-72
2022/10/18 04:12:47;;;;;;;11.63;4.70;;;11.60;99.90;;;;;;5098441;28;20108;-72
2022/10/18 04:15:12;;;;;;;9.35;4.60;;;11.60;99.90;;;;;;5112611;28;20024;-73
2022/10/18 04:17:38;;;;;;;12.70;4.32;;;11.60;99.90;;;;;;5113261;28;20506;-71
2022/10/18 04:20:04;;;;;;;11.82;4.53;;;11.60;99.90;;;;;;5112898;28;20034;-72
2022/10/18 04:22:29;;;;;;;14.02;4.43;;;11.60;99.90;;;;;;5112892;28;20030;-72
2022/10/18 04:24:55;;;;;;;8.77;4.43;;;11.50;99.90;;;;;;5112070;28;20031;-73
2022/10/18 04:27:21;;;;;;;10.40;3.95;;;11.50;99.90;;;;;;5112594;28;20023;-71
2022/10/18 04:29:47;;;;;;;8.20;4.35;;;11.50;99.90;;;;;;5113648;28;20093;-72
2022/10/18 04:32:13;;;;;;;8.82;3.78;;;11.50;99.90;;;;;;5090585;28;20043;-72
2022/10/18 04:34:39;;;;;;;6.68;3.60;;;11.40;99.90;;;;;;5096238;28;20027;-72
2022/10/18 04:37:04;;;;;;;11.70;3.70;;;11.40;99.90;;;;;;5092002;28;20024;-73
2022/10/18 04:39:30;;;;;;;6.30;3.38;;;11.40;99.90;;;;;;5100472;28;20026;-72
2022/10/18 04:41:55;;;;;;;5.70;3.05;;;11.30;99.90;;;;;;5103865;28;20013;-72
2022/10/18 04:44:21;;;;;;;6.63;3.40;;;11.30;99.90;;;;;;5107577;28;20444;-71
2022/10/18 04:46:46;;;;;;;12.07;3.65;;;11.30;99.90;;;;;;5108431;28;20055;-73
2022/10/18 04:49:12;;;;;;;10.80;2.67;;;11.30;99.90;;;;;;5110852;28;20052;-71
2022/10/18 04:51:38;;;;;;;8.57;3.03;;;11.20;99.90;;;;;;5101903;28;20106;-73
2022/10/18 04:54:03;;;;;;;4.40;2.78;;;11.30;99.90;;;;;;5093461;28;20015;-72
2022/10/18 04:56:29;;;;;;;5.05;2.75;;;11.30;99.90;;;;;;5104312;28;20031;-71
2022/10/18 04:58:54;;;;;;;8.30;3.20;;;11.30;99.90;;;;;;5108896;28;20427;-72
2022/10/18 05:01:20;;;;;;;5.10;3.05;;;11.30;99.90;;;;;;5100703;28;20027;-71
2022/10/18 05:03:45;;;;;;;5.72;2.80;;;11.30;99.90;;;;;;5104221;28;20032;-71
2022/10/18 05:06:11;;;;;;;4.20;2.65;;;11.30;99.90;;;;;;5106788;28;20053;-72
2022/10/18 05:08:37;;;;;;;5.20;3.10;;;11.20;99.90;;;;;;5104155;28;20484;-72
2022/10/18 05:11:03;;;;;;;7.57;3.05;;;11.20;99.90;;;;;;5104149;28;20027;-73
2022/10/18 05:13:29;;;;;;;10.95;3.33;;;11.20;99.90;;;;;;5101501;28;20023;-72
2022/10/18 05:15:54;;;;;;;12.05;3.75;;;11.20;99.90;;;;;;5101208;28;20390;-72
2022/10/18 05:18:20;;;;;;;11.27;3.25;;;11.20;99.90;;;;;;5097813;28;20099;-72
2022/10/18 05:20:46;;;;;;;5.78;3.17;;;11.10;99.90;;;;;;5109524;28;20453;-72
2022/10/18 05:23:12;;;;;;;7.38;3.50;;;11.10;99.90;;;;;;5107268;28;20028;-72
2022/10/18 05:25:38;;;;;;;9.23;3.53;;;11.10;99.90;;;;;;5098534;28;20020;-71
2022/10/18 05:28:04;;;;;;;8.73;3.67;;;11.10;99.90;;;;;;5089699;28;20020;-71
2022/10/18 05:30:30;;;;;;;6.75;3.38;;;11.00;99.90;;;;;;5091783;28;20158;-72
2022/10/18 05:32:55;;;;;;;7.28;3.40;;;11.00;99.90;;;;;;5094968;28;20364;-73
2022/10/18 05:35:21;;;;;;;7.95;3.40;;;11.00;99.90;;;;;;5113062;28;20015;-72
2022/10/18 05:37:47;;;;;;;5.45;3.20;;;10.90;99.90;;;;;;5111736;28;20106;-72
2022/10/18 05:40:12;;;;;;;8.98;3.10;;;10.90;99.90;;;;;;5112789;28;20015;-72
2022/10/18 05:42:39;;;;;;;10.73;3.80;;;10.90;99.90;;;;;;5109096;28;20031;-72
2022/10/18 05:45:05;;;;;;;8.95;3.03;;;10.90;99.90;;;;;;5103662;28;20020;-72
2022/10/18 05:47:30;;;;;;;12.52;3.75;;;10.80;99.90;;;;;;5108229;28;20019;-71
2022/10/18 05:49:56;;;;;;;9.35;3.92;;;10.80;99.90;;;;;;5090312;28;20070;-73
2022/10/18 05:52:21;;;;;;;20.35;4.95;;;10.80;99.90;;;;;;5096009;28;20368;-72
2022/10/18 05:54:47;;;;;;;17.58;4.60;;;10.80;99.90;;;;;;5090115;28;20050;-72
2022/10/18 05:57:13;;;;;;;11.88;5.00;;;10.70;99.90;;;;;;5097707;27;20028;-72
2022/10/18 05:59:38;;;;;;;15.00;4.68;;;10.70;99.90;;;;;;5103681;28;20471;-72
2022/10/18 06:02:04;;;;;;;16.63;5.20;;;10.70;99.90;;;;;;5105042;28;20604;-72
2022/10/18 06:04:29;;;;;;;15.13;5.22;;;10.70;99.90;;;;;;5083345;28;20027;-73
2022/10/18 06:06:55;;;;;;;18.27;5.95;;;10.70;99.90;;;;;;5097271;28;20027;-72
2022/10/18 06:09:21;;;;;;;19.08;5.35;;;10.70;99.90;;;;;;5099721;28;20099;-72
2022/10/18 06:11:46;;;;;;;26.27;5.53;;;10.60;99.90;;;;;;5105647;28;20064;-72
2022/10/18 06:14:12;;;;;;;19.23;5.68;;;10.60;99.90;;;;;;5107922;28;20023;-72
2022/10/18 06:16:38;;;;;;;16.77;5.30;;;10.60;99.90;;;;;;5104397;28;20546;-73
2022/10/18 06:19:03;;;;;;;14.48;5.65;;;10.60;99.90;;;;;;5110995;28;20026;-72
2022/10/18 06:21:29;;;;;;;18.50;5.38;;;10.50;99.90;;;;;;5092117;28;20024;-72
2022/10/18 06:23:56;;;;;;;10.80;4.95;;;10.50;99.90;;;;;;5101018;28;20414;-72
2022/10/18 06:26:22;;;;;;;17.35;5.45;;;10.50;99.90;;;;;;5111078;28;20103;-72
2022/10/18 06:28:48;;;;;;;17.40;5.60;;;10.50;99.90;;;;;;5110378;28;20106;-72
2022/10/18 06:31:14;;;;;;;11.30;5.00;;;10.50;99.90;;;;;;5078292;28;20028;-72
2022/10/18 06:33:39;;;;;;;12.60;4.82;;;10.50;99.90;;;;;;5110694;28;20031;-72
2022/10/18 06:36:09;;;;;;;14.65;5.40;;;10.50;99.90;;;;;;5110504;28;20031;-72
2022/10/18 06:38:35;;;;;;;13.40;4.90;;;10.40;99.90;;;;;;5105676;28;20093;-72
2022/10/18 06:41:00;;;;;;;16.65;5.80;;;10.40;99.90;;;;;;5090484;28;20028;-72
2022/10/18 06:43:26;;;;;;;14.35;5.70;;;10.40;99.90;;;;;;5088492;28;20531;-72
2022/10/18 06:45:53;;;;;;;13.70;6.03;;;10.40;99.90;;;;;;5110783;28;20034;-72
2022/10/18 06:48:19;;;;;;;13.30;5.55;;;10.40;99.90;;;;;;5109856;28;20024;-72
2022/10/18 06:50:52;;;;;;;14.98;5.93;;;10.40;99.90;;;;;;5092053;28;20047;-72
2022/10/18 06:53:17;;;;;;;13.75;5.80;;;10.40;99.90;;;;;;5110604;28;20020;-72
2022/10/18 06:55:43;;;;;;;14.55;6.38;;;10.40;99.90;;;;;;5110077;28;20019;-72
2022/10/18 06:58:08;;;;;;;13.05;5.22;;;10.40;99.90;;;;;;5110312;28;20312;-73
2022/10/18 07:00:35;;;;;;;12.63;6.05;;;10.30;99.90;;;;;;5107946;28;20027;-73
2022/10/18 07:03:00;;;;;;;15.93;5.85;;;10.30;99.90;;;;;;5098748;28;20046;-73
2022/10/18 07:05:26;;;;;;;13.82;5.50;;;10.30;99.90;;;;;;5095566;28;20488;-73
2022/10/18 07:07:52;;;;;;;10.30;4.75;;;10.30;99.90;;;;;;5109977;28;20115;-73
2022/10/18 07:10:17;;;;;;;12.88;5.50;;;10.30;99.90;;;;;;5098089;28;20055;-73
2022/10/18 07:12:43;;;;;;;15.15;5.78;;;10.30;99.90;;;;;;5108096;28;20428;-72
2022/10/18 07:15:09;;;;;;;10.90;5.20;;;10.40;99.90;;;;;;5110035;28;20032;-72
2022/10/18 07:17:35;;;;;;;13.20;5.68;;;10.40;99.90;;;;;;5104185;28;20103;-74
2022/10/18 07:20:03;;;;;;;10.63;5.38;;;10.40;99.90;;;;;;5099350;28;20111;-73
2022/10/18 07:22:29;;;;;;;11.77;5.20;;;10.40;99.90;;;;;;5098137;28;20108;-73
2022/10/18 07:24:54;;;;;;;13.93;4.90;;;10.40;99.90;;;;;;5103900;28;20020;-73
2022/10/18 07:27:20;;;;;;;15.00;5.88;;;10.40;99.90;;;;;;5103824;28;20069;-72
2022/10/18 07:29:47;;;;;;;12.35;5.25;;;10.40;99.90;;;;;;5109383;28;20475;-72
2022/10/18 07:32:13;;;;;;;11.27;5.38;;;10.50;99.90;;;;;;5114619;28;20058;-73
2022/10/18 07:34:41;;;;;;;10.73;5.57;;;10.50;99.90;;;;;;5113902;28;20424;-72
2022/10/18 07:37:07;;;;;;;11.68;5.70;;;10.50;99.90;;;;;;5113833;28;20023;-74
2022/10/18 07:39:32;;;;;;;12.32;5.55;;;10.50;99.90;;;;;;5111344;28;20078;-72
2022/10/18 07:41:58;;;;;;;17.92;6.10;;;10.50;99.90;;;;;;5111008;28;20019;-72
2022/10/18 07:44:23;;;;;;;15.10;6.47;;;10.60;99.90;;;;;;5111415;28;20158;-72
2022/10/18 07:46:49;;;;;;;16.75;6.18;;;10.60;99.90;;;;;;5106215;28;20022;-72
2022/10/18 07:49:14;;;;;;;19.65;6.35;;;10.70;99.90;;;;;;5108127;28;20073;-72
2022/10/18 07:51:40;;;;;;;18.10;6.32;;;10.80;99.90;;;;;;5111002;28;20024;-72
2022/10/18 07:54:05;;;;;;;19.95;7.15;;;10.90;99.90;;;;;;5104430;28;20367;-72
2022/10/18 07:56:31;;;;;;;15.20;6.75;;;10.90;99.90;;;;;;5095356;28;20383;-72
2022/10/18 07:58:56;;;;;;;21.58;7.10;;;11.00;99.90;;;;;;5085176;28;20395;-73
2022/10/18 08:01:23;;;;;;;25.92;7.20;;;11.20;99.90;;;;;;5111418;28;20530;-72
2022/10/18 08:03:49;;;;;;;34.63;14.55;;;11.30;99.90;;;;;;5105474;28;20050;-72
2022/10/18 08:06:17;;;;;;;26.00;8.48;;;11.40;99.90;;;;;;5110527;28;20464;-71
2022/10/18 08:08:44;;;;;;;66.18;32.80;;;11.50;99.90;;;;;;5106599;28;20490;-73
2022/10/18 08:11:21;;;;;;;32.55;11.73;;;11.60;99.90;;;;;;5107192;28;20037;-72
2022/10/18 08:13:47;;;;;;;28.15;7.40;;;11.80;99.90;;;;;;5107993;28;20019;-73
2022/10/18 08:16:21;;;;;;;22.45;6.90;;;12.00;99.90;;;;;;5098093;28;20099;-73
2022/10/18 08:18:47;;;;;;;26.30;6.50;;;12.20;99.90;;;;;;5089946;28;20028;-71
2022/10/18 08:21:15;;;;;;;21.73;6.63;;;12.40;99.90;;;;;;5109109;28;20525;-71
2022/10/18 08:23:41;;;;;;;20.17;6.05;;;12.50;99.90;;;;;;5112646;28;20026;-72
2022/10/18 08:26:11;;;;;;;20.65;5.85;;;12.60;99.90;;;;;;5110552;28;20016;-72
2022/10/18 08:28:37;;;;;;;13.57;5.28;;;12.70;99.90;;;;;;5103382;28;20452;-74
2022/10/18 08:31:07;;;;;;;22.20;5.78;;;12.80;99.90;;;;;;5108300;28;20091;-72
2022/10/18 08:33:34;;;;;;;19.90;5.53;;;13.00;99.90;;;;;;5108176;28;20421;-71
2022/10/18 08:36:06;;;;;;;119.25;81.13;;;13.10;99.90;;;;;;5108922;28;20020;-70
2022/10/18 08:38:37;;;;;;;67.78;36.25;;;13.20;99.90;;;;;;5106521;28;20107;-70
2022/10/18 08:41:20;;;;;;;56.80;27.50;;;13.40;99.90;;;;;;5106170;28;20183;-71
2022/10/18 08:44:19;;;;;;;42.58;21.45;;;13.60;99.90;;;;;;5098620;28;20519;-71
2022/10/18 08:46:48;;;;;;;19.63;6.47;;;13.80;99.90;;;;;;5103987;28;20024;-72
2022/10/18 08:49:28;;;;;;;15.75;4.80;;;13.90;99.90;;;;;;5111847;28;20457;-72
2022/10/18 08:51:55;;;;;;;14.13;3.72;;;14.10;99.90;;;;;;5101414;28;20164;-72
2022/10/18 08:54:52;;;;;;;12.27;3.50;;;14.30;99.90;;;;;;5103859;28;20009;-72
2022/10/18 08:57:18;;;;;;;10.90;3.92;;;14.40;99.90;;;;;;5096514;28;20375;-72
2022/10/18 08:59:44;;;;;;;16.02;5.15;;;14.50;99.90;;;;;;5112087;28;20027;-73
2022/10/18 09:02:31;;;;;;;163.07;101.82;;;14.70;99.90;;;;;;5110020;28;20080;-71
2022/10/18 09:05:28;;;;;;;192.32;122.80;;;14.80;99.90;;;;;;5090755;28;20398;-71
2022/10/18 09:08:26;;;;;;;52.65;26.75;;;15.00;99.90;;;;;;5090212;28;20039;-72
2022/10/18 09:11:28;;;;;;;32.92;11.40;;;15.10;99.90;;;;;;5100851;28;20375;-71
2022/10/18 09:14:37;;;;;;;15.77;3.63;;;15.20;99.90;;;;;;5099503;28;20471;-72
2022/10/18 09:17:18;;;;;;;13.05;2.83;;;15.40;99.90;;;;;;4989141;28;20050;-73
2022/10/18 09:20:04;;;;;;;13.35;2.80;;;15.50;99.90;;;;;;4982211;28;20038;-73
2022/10/18 09:22:52;;;;;;;9.68;1.98;;;15.60;99.90;;;;;;4989882;28;20038;-74
2022/10/18 09:25:18;;;;;;;14.25;1.80;;;15.70;99.90;;;;;;4982559;28;20073;-73
2022/10/18 09:27:54;;;;;;;11.40;2.03;;;15.70;99.90;;;;;;4989493;28;20418;-73
2022/10/18 09:30:25;;;;;;;11.85;2.10;;;15.80;99.90;;;;;;4983095;28;20023;-73
2022/10/18 09:33:32;;;;;;;7.30;1.98;;;15.90;99.90;;;;;;4982145;28;20121;-72
2022/10/18 09:36:04;;;;;;;10.55;1.38;;;16.10;99.90;;;;;;4987684;28;20490;-71
2022/10/18 09:38:54;;;;;;;13.02;1.83;;;16.20;99.90;;;;;;4989330;28;20081;-71
2022/10/18 09:41:42;;;;;;;8.20;1.83;;;16.30;99.90;;;;;;4989405;28;20046;-71
2022/10/18 09:44:08;;;;;;;15.23;2.00;;;16.40;99.90;;;;;;4981796;28;20049;-71
2022/10/18 09:46:39;;;;;;;10.25;1.92;;;16.50;99.90;;;;;;4988797;28;20046;-71
2022/10/18 09:49:15;;;;;;;8.30;1.45;;;16.60;99.90;;;;;;4981596;28;20046;-72
2022/10/18 09:51:42;;;;;;;11.50;1.70;;;16.70;99.90;;;;;;4983185;28;20035;-72
2022/10/18 09:54:30;;;;;;;9.45;1.80;;;16.80;99.90;;;;;;5055867;28;20031;-72
2022/10/18 09:57:10;;;;;;;12.27;1.60;;;16.90;99.90;;;;;;5106928;28;20031;-71
2022/10/18 09:59:48;;;;;;;10.32;1.70;;;16.90;99.90;;;;;;5103289;28;20039;-72
2022/10/18 10:02:20;;;;;;;8.68;1.75;;;17.10;99.90;;;;;;5092327;28;20021;-72
2022/10/18 10:04:47;;;;;;;10.80;2.05;;;17.20;99.90;;;;;;5093913;28;20019;-72
2022/10/18 10:07:40;;;;;;;13.15;2.25;;;17.30;99.90;;;;;;5110152;28;20089;-72
2022/10/18 10:10:28;;;;;;;10.23;2.38;;;17.40;99.90;;;;;;5100835;28;20059;-73
2022/10/18 10:13:02;;;;;;;12.40;2.08;;;17.50;99.90;;;;;;5090291;28;20028;-72
2022/10/18 10:15:28;;;;;;;9.47;2.20;;;17.60;99.90;;;;;;5091429;28;20352;-74
2022/10/18 10:18:00;;;;;;;11.95;2.33;;;17.70;99.90;;;;;;5101005;28;20034;-73
2022/10/18 10:20:35;;;;;;;11.25;1.98;;;17.80;99.90;;;;;;5103952;28;20429;-73
2022/10/18 10:23:24;;;;;;;12.73;1.83;;;17.90;99.90;;;;;;5092814;28;20373;-73
2022/10/18 10:25:53;;;;;;;11.45;1.85;;;17.90;99.90;;;;;;5096177;28;20054;-73
2022/10/18 10:28:23;;;;;;;8.85;1.52;;;18.00;99.90;;;;;;5104671;28;20012;-74
2022/10/18 10:30:49;;;;;;;7.32;1.30;;;18.00;99.90;;;;;;5104607;28;20023;-73
2022/10/18 10:33:37;;;;;;;8.13;1.58;;;18.10;99.90;;;;;;5099124;28;20098;-73
2022/10/18 10:36:16;;;;;;;11.20;1.85;;;18.10;99.90;;;;;;5093997;28;20035;-72
2022/10/18 10:38:42;;;;;;;10.75;1.70;;;18.10;99.90;;;;;;5096091;28;20495;-73
2022/10/18 10:41:19;;;;;;;11.32;1.70;;;18.10;99.90;;;;;;5104357;28;20036;-73
2022/10/18 10:43:45;;;;;;;8.40;1.52;;;18.20;99.90;;;;;;5100982;28;20404;-72
2022/10/18 10:46:12;;;;;;;11.77;1.40;;;18.20;99.90;;;;;;5101970;28;20471;-73
2022/10/18 10:48:56;;;;;;;10.65;1.60;;;18.30;99.90;;;;;;5101422;28;20020;-73
2022/10/18 10:51:37;;;;;;;7.68;1.33;;;18.40;99.90;;;;;;5092934;28;20035;-72
2022/10/18 10:54:14;;;;;;;6.07;1.05;;;18.50;99.90;;;;;;5095703;28;20030;-74
2022/10/18 10:57:10;;;;;;;6.47;1.42;;;18.40;99.90;;;;;;5109916;28;20114;-73
2022/10/18 10:59:53;;;;;;;8.52;1.38;;;18.50;99.90;;;;;;5081153;28;20158;-72
2022/10/18 11:02:34;;;;;;;9.05;1.70;;;18.50;99.90;;;;;;5106233;28;20051;-73
2022/10/18 11:05:29;;;;;;;10.60;1.45;;;18.50;99.90;;;;;;5092074;28;20127;-73
2022/10/18 11:08:00;;;;;;;12.80;1.80;;;18.50;99.90;;;;;;5110417;28;20115;-72
2022/10/18 11:10:33;;;;;;;7.93;1.38;;;18.50;99.90;;;;;;5110925;28;20042;-72
2022/10/18 11:13:27;;;;;;;8.60;1.48;;;18.70;99.90;;;;;;5088490;28;20048;-73
2022/10/18 11:15:59;;;;;;;7.60;1.25;;;18.70;99.90;;;;;;5106277;28;20024;-72
2022/10/18 11:18:30;;;;;;;10.30;1.48;;;18.70;99.90;;;;;;5111355;28;20030;-72
2022/10/18 11:21:09;;;;;;;6.32;1.20;;;18.80;99.90;;;;;;5095293;28;20361;-71
2022/10/18 11:23:40;;;;;;;6.57;1.83;;;18.80;99.90;;;;;;5096848;28;20032;-72
2022/10/18 11:26:11;;;;;;;7.80;1.42;;;18.80;99.90;;;;;;5110283;28;20046;-73
2022/10/18 11:28:46;;;;;;;10.68;1.50;;;18.90;99.90;;;;;;5096654;28;20020;-72
2022/10/18 11:31:43;;;;;;;7.72;1.38;;;18.90;99.90;;;;;;5110523;28;20027;-72
2022/10/18 11:34:46;;;;;;;7.25;1.50;;;19.00;99.90;;;;;;5100557;28;20034;-72
2022/10/18 11:37:26;;;;;;;6.88;1.10;;;18.90;99.90;;;;;;5090446;28;20121;-73
2022/10/18 11:40:16;;;;;;;7.25;1.20;;;18.90;99.90;;;;;;5072763;28;20077;-72
2022/10/18 11:43:11;;;;;;;11.90;1.27;;;18.90;99.90;;;;;;5110357;28;20038;-72
2022/10/18 11:45:49;;;;;;;8.90;1.58;;;18.90;99.90;;;;;;5109792;28;20024;-72
2022/10/18 11:48:29;;;;;;;8.35;1.30;;;18.90;99.90;;;;;;5109836;28;20076;-73
2022/10/18 11:51:09;;;;;;;9.27;1.17;;;18.90;99.90;;;;;;5074686;28;20040;-73
2022/10/18 11:53:53;;;;;;;8.43;1.23;;;19.00;99.90;;;;;;5084754;28;20023;-73
2022/10/18 11:56:29;;;;;;;6.45;1.15;;;19.00;99.90;;;;;;5082959;28;20031;-72
2022/10/18 11:59:18;;;;;;;7.63;1.42;;;19.10;99.90;;;;;;5074859;28;20162;-72
2022/10/18 12:02:34;;;;;;;4.32;1.10;;;19.20;99.90;;;;;;5048929;28;20549;-73
2022/10/18 12:05:01;;;;;;;5.60;1.38;;;19.20;99.90;;;;;;5051599;28;20041;-73
2022/10/18 12:07:42;;;;;;;6.55;1.20;;;19.10;99.90;;;;;;5086488;28;20033;-72
2022/10/18 12:10:14;;;;;;;7.32;1.20;;;19.10;99.90;;;;;;5075931;28;20434;-72
2022/10/18 12:12:53;;;;;;;7.63;1.30;;;19.10;99.90;;;;;;5073978;28;20036;-73
2022/10/18 12:15:24;;;;;;;6.38;1.13;;;19.10;99.90;;;;;;5081200;28;20028;-73
2022/10/18 12:17:53;;;;;;;10.30;1.38;;;19.10;99.90;;;;;;5091837;28;20111;-72
2022/10/18 12:20:30;;;;;;;8.20;1.27;;;19.10;99.90;;;;;;5088212;28;20338;-74
2022/10/18 12:23:12;;;;;;;6.75;1.23;;;19.20;99.90;;;;;;5089031;28;20383;-73
2022/10/18 12:25:42;;;;;;;8.95;1.15;;;19.20;99.90;;;;;;5083624;28;20097;-73
2022/10/18 12:28:46;;;;;;;50.95;37.05;;;19.20;99.90;;;;;;5077510;28;20038;-73
2022/10/18 12:31:19;;;;;;;7.38;2.95;;;19.20;99.90;;;;;;5079743;28;20047;-73
2022/10/18 12:33:49;;;;;;;9.63;1.50;;;19.10;99.90;;;;;;5077461;28;20029;-72
2022/10/18 12:36:21;;;;;;;7.88;1.30;;;19.20;99.90;;;;;;5077111;28;20024;-72
2022/10/18 12:39:02;;;;;;;4.35;1.17;;;19.10;99.90;;;;;;5092228;28;20035;-73
2022/10/18 12:41:33;;;;;;;8.27;1.50;;;19.10;99.90;;;;;;5081132;28;20393;-72
2022/10/18 12:44:04;;;;;;;7.88;1.40;;;19.00;99.90;;;;;;5087979;28;20043;-72
2022/10/18 12:46:48;;;;;;;7.75;1.00;;;18.90;99.90;;;;;;5083981;28;20462;-72
2022/10/18 12:49:19;;;;;;;7.60;1.13;;;18.90;99.90;;;;;;5091594;28;20056;-73
2022/10/18 12:51:59;;;;;;;10.75;1.10;;;19.00;99.90;;;;;;5104135;28;20178;-72
2022/10/18 12:54:29;;;;;;;9.20;1.55;;;19.00;99.90;;;;;;5109995;28;20019;-72
2022/10/18 12:56:55;;;;;;;9.07;1.48;;;19.00;99.90;;;;;;5098323;28;20030;-74
2022/10/18 12:59:25;;;;;;;7.43;1.10;;;19.00;99.90;;;;;;5094286;28;20016;-73